HGH weather

Hangzhou Xiaoshan International Airport
Hangzhou, Zhejiang Province, China

Public forecast

Using degrees Celsius for public forecast. Weather courtesy of forecast.io.

Current aviation weather report (METAR) for Hangzhou Xiaoshan International Airport

Retrieved 2019/10/14 14:30 UTC (0 seconds ago):

ZSHC 141430Z 03005MPS 350V050 9999 BKN040 19/14 Q1029 NOSIG

Aviation forecast (TAF) for Hangzhou Xiaoshan International Airport

Retrieved 2019/10/14 12:03 UTC (2 hours ago):

TAF ZSHC 140911Z 1412/1512 03005G11MPS 3000 BR BKN020 TX20/1506Z TN16/1421Z